Time;durP1;ratioP1;P1;durP2;ratioP2;P2;SDS_P1;SDS_P2;PMS_P1;PMS_P2;Temp;Humidity;BMP_temperature;BMP_pressure;BME280_temperature;BME280_humidity;BME280_pressure;Samples;Min_cycle;Max_cycle;Signal;HPM_P1;HPM_P2
2021/09/03 03:10:28;;;;;;;;;;;;;;;8.00;92.55;100002.91;5940875;23;20289;-84
2021/09/03 03:12:54;;;;;;;;;;;;;;;8.04;92.82;99997.56;4974440;28;20124;-85
2021/09/03 03:15:19;;;;;;;;;;;;;;;7.98;93.12;99996.81;4964147;28;19922;-85
2021/09/03 03:17:45;;;;;;;;;;;;;;;7.97;93.34;99988.97;4963647;28;20285;-87
2021/09/03 03:20:11;;;;;;;;;;;;;;;8.01;93.94;99987.97;4962069;28;19922;-87
2021/09/03 03:22:36;;;;;;;;;;;;;;;8.04;93.41;99981.72;4961911;28;19922;-87
2021/09/03 03:25:02;;;;;;;;;;;;;;;8.02;93.35;99979.13;4961075;28;20021;-86
2021/09/03 03:27:27;;;;;;;;;;;;;;;8.03;93.67;99975.59;4963570;28;20431;-85
2021/09/03 03:29:52;;;;;;;;;;;;;;;8.04;93.44;99977.31;4964324;28;20017;-84
2021/09/03 03:32:17;;;;;;;;;;;;;;;8.11;93.67;99970.94;4970135;28;19925;-87
2021/09/03 03:34:44;;;;;;;;;;;;;;;8.07;93.83;99974.56;4969354;28;19953;-87
2021/09/03 03:37:10;;;;;;;;;;;;;;;7.99;93.90;99973.94;4968338;28;19923;-85
2021/09/03 03:39:35;;;;;;;;;;;;;;;8.04;93.95;99969.41;4968473;28;19922;-85
2021/09/03 03:42:00;;;;;;;;;;;;;;;8.00;93.98;99965.97;4970213;28;19918;-89
2021/09/03 03:44:25;;;;;;;;;;;;;;;8.00;94.34;99962.47;4970083;28;19918;-87
2021/09/03 03:46:51;;;;;;;;;;;;;;;8.06;95.00;99962.31;4969597;28;19929;-86
2021/09/03 03:49:16;;;;;;;;;;;;;;;8.32;100.00;99965.94;4968498;28;19972;-86
2021/09/03 03:51:41;;;;;;;;;;;;;;;8.80;100.00;99965.31;4969103;28;19922;-85
2021/09/03 03:54:06;;;;;;;;;;;;;;;8.87;100.00;99964.22;4970184;28;19919;-85
2021/09/03 03:56:32;;;;;;;;;;;;;;;8.89;100.00;99965.00;4966988;28;19966;-84
2021/09/03 03:58:57;;;;;;;;;;;;;;;9.11;100.00;99966.06;4967162;28;20340;-84
2021/09/03 04:01:22;;;;;;;;;;;;;;;9.03;100.00;99958.38;4969579;28;19924;-85
2021/09/03 04:03:47;;;;;;;;;;;;;;;8.96;100.00;99957.75;4968560;28;19922;-85
2021/09/03 04:06:13;;;;;;;;;;;;;;;8.80;100.00;99962.66;4968021;28;20258;-86
2021/09/03 04:08:38;;;;;;;;;;;;;;;8.71;100.00;99963.84;4968387;28;19918;-87
2021/09/03 04:11:03;;;;;;;;;;;;;;;8.64;100.00;99959.66;4969793;28;19938;-86
2021/09/03 04:13:29;;;;;;;;;;;;;;;8.57;100.00;99965.19;4970793;28;20019;-89
2021/09/03 04:15:54;;;;;;;;;;;;;;;8.53;100.00;99962.63;4971791;28;19925;-87
2021/09/03 04:18:19;;;;;;;;;;;;;;;8.53;100.00;99970.56;4971435;28;19977;-87
2021/09/03 04:20:45;;;;;;;;;;;;;;;8.46;100.00;99965.53;4971345;28;20448;-88
2021/09/03 04:23:10;;;;;;;;;;;;;;;8.44;100.00;99968.22;4989465;28;19925;-87
2021/09/03 04:25:36;;;;;;;;;;;;;;;8.44;100.00;99975.25;4969902;28;19922;-87
2021/09/03 04:28:01;;;;;;;;;;;;;;;8.37;100.00;99964.00;4988151;28;19929;-89
2021/09/03 04:30:27;;;;;;;;;;;;;;;8.34;100.00;99970.25;4971288;28;19929;-87
2021/09/03 04:32:52;;;;;;;;;;;;;;;8.29;100.00;99968.66;4989093;28;19918;-88
2021/09/03 04:35:17;;;;;;;;;;;;;;;8.30;100.00;99980.97;4970720;28;19969;-88
2021/09/03 07:46:14;;;;;;;;;;;;;;;8.07;98.80;99963.16;4969628;23;20373;-88
2021/09/03 07:48:39;;;;;;;;;;;;;;;8.07;98.56;99961.38;4964606;28;19965;-88
2021/09/03 07:51:04;;;;;;;;;;;;;;;8.08;98.97;99963.13;4962875;28;19925;-89
2021/09/03 07:53:30;;;;;;;;;;;;;;;8.14;98.68;99962.06;4964931;28;20377;-90
2021/09/03 07:55:56;;;;;;;;;;;;;;;8.07;98.79;99956.09;4965195;28;19918;-89
2021/09/03 07:58:22;;;;;;;;;;;;;;;8.14;99.06;99965.56;4964809;28;19957;-87
2021/09/03 08:00:47;;;;;;;;;;;;;;;8.19;99.14;99961.00;4972281;28;20027;-89
2021/09/03 08:03:12;;;;;;;;;;;;;;;8.10;98.66;99963.91;4965439;28;19917;-88
2021/09/03 08:05:38;;;;;;;;;;;;;;;8.17;99.00;99956.72;4965305;28;19918;-88
2021/09/03 08:08:04;;;;;;;;;;;;;;;8.22;98.84;99967.09;4983111;28;19925;-87
2021/09/03 08:10:32;;;;;;;;;;;;;;;8.18;98.65;99961.94;4980514;28;19924;-89
2021/09/03 08:12:57;;;;;;;;;;;;;;;8.19;98.93;99961.00;4983570;28;19918;-88
2021/09/03 08:15:23;;;;;;;;;;;;;;;8.19;99.51;99965.44;4981368;28;20361;-87
2021/09/03 08:17:48;;;;;;;;;;;;;;;8.23;99.30;99966.19;4966927;28;19972;-90
2021/09/03 08:20:14;;;;;;;;;;;;;;;8.20;99.44;99969.81;4968500;28;20358;-87
2021/09/03 08:22:39;;;;;;;;;;;;;;;8.25;98.89;99969.66;4987066;28;19929;-88
2021/09/03 08:25:04;;;;;;;;;;;;;;;8.20;98.83;99972.47;4969591;28;19964;-88
2021/09/03 08:27:30;;;;;;;;;;;;;;;8.23;98.72;99971.47;4968750;28;19918;-87
2021/09/03 08:29:55;;;;;;;;;;;;;;;8.22;98.76;99977.66;4984992;28;19929;-88
2021/09/03 08:32:21;;;;;;;;;;;;;;;8.25;99.47;99975.81;4969096;28;19918;-87
2021/09/03 08:34:46;;;;;;;;;;;;;;;8.23;99.05;99982.91;4968705;28;19929;-91
2021/09/03 08:37:11;;;;;;;;;;;;;;;8.26;99.23;99974.03;4967941;28;19968;-91
2021/09/03 08:39:37;;;;;;;;;;;;;;;8.33;98.28;99967.66;4968676;28;20022;-87
2021/09/03 08:42:02;;;;;;;;;;;;;;;8.29;99.04;99971.31;4985526;28;19972;-89
2021/09/03 08:44:29;;;;;;;;;;;;;;;8.30;99.21;99970.41;4966915;28;19918;-89
2021/09/03 08:46:55;;;;;;;;;;;;;;;8.37;99.10;99966.63;4965028;28;19925;-89
2021/09/03 08:49:21;;;;;;;;;;;;;;;8.38;99.27;99968.38;4965283;28;19924;-88
2021/09/03 08:51:46;;;;;;;;;;;;;;;8.48;98.99;99969.84;4966508;28;19918;-88
2021/09/03 08:54:11;;;;;;;;;;;;;;;8.41;98.41;99970.03;4964641;28;19918;-87
2021/09/03 08:56:37;;;;;;;;;;;;;;;8.41;98.75;99967.41;4964975;28;19965;-88
2021/09/03 08:59:02;;;;;;;;;;;;;;;8.45;98.48;99969.09;4962773;28;20057;-87
2021/09/03 09:01:27;;;;;;;;;;;;;;;8.44;98.45;99969.97;4964919;28;20012;-89
2021/09/03 09:03:52;;;;;;;;;;;;;;;8.41;98.63;99970.94;4964137;28;20056;-89
2021/09/03 09:06:20;;;;;;;;;;;;;;;8.45;98.08;99975.22;4964179;28;19962;-90
2021/09/03 09:08:53;;;;;;;;;;;;;;;8.40;98.59;99969.19;4980410;28;19922;-89
2021/09/03 09:11:18;;;;;;;;;;;;;;;8.46;98.09;99973.47;4964775;28;19922;-91
2021/09/03 09:13:44;;;;;;;;;;;;;;;8.53;98.69;99974.97;4964262;28;19919;-89
2021/09/03 09:16:13;;;;;;;;;;;;;;;8.49;98.35;99976.88;4964707;28;19922;-89
2021/09/03 09:18:44;;;;;;;;;;;;;;;8.46;97.99;99979.59;4959715;28;19981;-90
2021/09/03 09:21:17;;;;;;;;;;;;;;;8.50;98.17;99975.06;4962655;28;19933;-89
2021/09/03 09:23:44;;;;;;;;;;;;;;;8.43;98.96;99969.13;4964232;28;20285;-90
2021/09/03 09:26:10;;;;;;;;;;;;;;;8.46;99.30;99970.81;4964529;28;20024;-89
2021/09/03 09:28:35;;;;;;;;;;;;;;;8.44;98.48;99975.25;4963131;28;20374;-89
2021/09/03 09:31:00;;;;;;;;;;;;;;;8.49;98.24;99974.22;4964913;28;19925;-89
2021/09/03 09:33:26;;;;;;;;;;;;;;;8.47;98.29;99970.78;4965197;28;19930;-88
2021/09/03 09:35:53;;;;;;;;;;;;;;;8.45;98.56;99969.09;4963810;28;19965;-95
2021/09/03 09:38:20;;;;;;;;;;;;;;;8.48;98.28;99972.47;4965547;28;19929;-90
2021/09/03 09:40:45;;;;;;;;;;;;;;;8.53;98.38;99970.56;4966194;28;19918;-88
2021/09/03 09:43:24;;;;;;;;;;;;;;;8.49;98.70;99968.94;4965801;28;20402;-91
2021/09/03 09:46:09;;;;;;;;;;;;;;;8.55;98.98;99965.22;4960227;28;19930;-94
2021/09/03 09:48:49;;;;;;;;;;;;;;;8.47;98.63;99960.22;4964672;28;20334;-91
2021/09/03 09:51:22;;;;;;;;;;;;;;;8.57;98.63;99959.91;4981628;28;19918;-89
2021/09/03 09:53:54;;;;;;;;;;;;;;;8.54;98.89;99960.88;4963320;28;19919;-89
2021/09/03 09:56:20;;;;;;;;;;;;;;;8.53;98.96;99953.84;4963884;28;19926;-90
2021/09/03 09:58:47;;;;;;;;;;;;;;;8.51;98.66;99953.06;4962011;28;19919;-90
2021/09/03 10:01:13;;;;;;;;;;;;;;;8.56;98.55;99955.53;4964615;28;19922;-90
2021/09/03 10:03:38;;;;;;;;;;;;;;;8.55;98.83;99944.09;4963481;28;20329;-89
2021/09/03 10:06:04;;;;;;;;;;;;;;;8.56;99.00;99948.47;4964088;28;19918;-90
2021/09/03 10:08:29;;;;;;;;;;;;;;;8.56;98.39;99947.63;4963429;28;19933;-90
2021/09/03 10:10:54;;;;;;;;;;;;;;;8.59;98.56;99947.53;4964495;28;20379;-88
2021/09/03 10:13:20;;;;;;;;;;;;;;;8.57;98.82;99947.56;4963354;28;19929;-90
2021/09/03 10:15:45;;;;;;;;;;;;;;;8.52;99.33;99950.38;4963140;28;20374;-89
2021/09/03 10:18:11;;;;;;;;;;;;;;;8.59;99.29;99939.59;4963223;28;19922;-89
2021/09/03 10:20:36;;;;;;;;;;;;;;;8.56;98.93;99943.19;4963598;28;20438;-90
2021/09/03 10:23:01;;;;;;;;;;;;;;;8.59;99.06;99940.47;4963299;28;19922;-90
2021/09/03 10:25:27;;;;;;;;;;;;;;;8.63;98.62;99941.22;4962934;28;20021;-89
2021/09/03 10:28:07;;;;;;;;;;;;;;;8.66;98.68;99931.44;4963460;28;19922;-89
2021/09/03 10:30:33;;;;;;;;;;;;;;;8.64;98.00;99927.97;4961370;28;19929;-89
2021/09/03 10:33:11;;;;;;;;;;;;;;;8.70;97.76;99940.13;4963333;28;19914;-89
2021/09/03 10:35:36;;;;;;;;;;;;;;;8.67;98.19;99929.66;4963168;28;19922;-90
2021/09/03 10:38:22;;;;;;;;;;;;;;;8.71;98.31;99920.69;4963307;28;19923;-89
2021/09/03 10:40:47;;;;;;;;;;;;;;;8.63;98.52;99923.59;4963374;28;19918;-89
2021/09/03 10:43:12;;;;;;;;;;;;;;;8.64;99.55;99916.53;4962578;28;19925;-88
2021/09/03 10:45:40;;;;;;;;;;;;;;;8.66;98.44;99917.34;4961533;28;19930;-88
2021/09/03 10:48:31;;;;;;;;;;;;;;;8.60;99.16;99907.88;4963189;28;19940;-88
2021/09/03 10:50:59;;;;;;;;;;;;;;;8.63;98.90;99912.16;4957826;28;19926;-89
2021/09/03 10:53:33;;;;;;;;;;;;;;;8.60;99.11;99907.88;4963596;28;19922;-89
2021/09/03 10:56:04;;;;;;;;;;;;;;;8.64;98.90;99908.63;4978896;28;19918;-89
2021/09/03 10:58:36;;;;;;;;;;;;;;;8.70;98.36;99908.41;4964376;28;19929;-89
2021/09/03 11:01:16;;;;;;;;;;;;;;;8.76;99.03;99908.22;4961684;28;19961;-90
2021/09/03 11:03:43;;;;;;;;;;;;;;;8.72;98.27;99911.88;4962778;28;20378;-89
2021/09/03 11:06:11;;;;;;;;;;;;;;;8.73;97.78;99913.59;4962731;28;20265;-89
2021/09/03 11:08:37;;;;;;;;;;;;;;;8.71;98.48;99904.84;4962491;28;19922;-89
2021/09/03 11:11:21;;;;;;;;;;;;;;;8.68;98.66;99904.94;4962558;28;19919;-89
2021/09/03 11:13:47;;;;;;;;;;;;;;;8.69;98.94;99902.25;4962392;28;19929;-89
2021/09/03 11:16:31;;;;;;;;;;;;;;;8.73;99.56;99900.38;4963679;28;19922;-89
2021/09/03 11:19:10;;;;;;;;;;;;;;;8.72;98.51;99901.28;4976180;28;19934;-89
2021/09/03 11:21:37;;;;;;;;;;;;;;;8.80;99.04;99891.31;4963146;28;20073;-89
2021/09/03 11:24:03;;;;;;;;;;;;;;;8.72;98.86;99888.94;4962755;28;19918;-88
2021/09/03 11:26:29;;;;;;;;;;;;;;;8.82;99.66;99891.28;4961720;28;20445;-90
2021/09/03 11:28:55;;;;;;;;;;;;;;;8.73;98.59;99897.75;4968332;28;20005;-90
2021/09/03 11:31:20;;;;;;;;;;;;;;;8.89;99.34;99892.81;4962451;28;20377;-90
2021/09/03 11:33:46;;;;;;;;;;;;;;;8.83;99.65;99891.22;4962071;28;20010;-88
2021/09/03 11:36:11;;;;;;;;;;;;;;;8.74;99.33;99888.88;4963156;28;19918;-90
2021/09/03 11:38:37;;;;;;;;;;;;;;;8.76;99.07;99892.38;4962912;28;20453;-89
2021/09/03 11:41:08;;;;;;;;;;;;;;;8.80;99.06;99888.69;4962360;28;19985;-90
2021/09/03 11:43:34;;;;;;;;;;;;;;;8.81;99.02;99892.22;4962316;28;20286;-88
2021/09/03 11:45:59;;;;;;;;;;;;;;;8.81;98.76;99881.66;4960894;28;19926;-89
2021/09/03 11:48:25;;;;;;;;;;;;;;;8.85;99.07;99885.88;4962022;28;19918;-89
2021/09/03 11:50:51;;;;;;;;;;;;;;;8.79;98.28;99886.97;4961573;28;19929;-89
2021/09/03 11:53:19;;;;;;;;;;;;;;;8.88;99.21;99877.84;4967219;28;20275;-87
2021/09/03 11:55:46;;;;;;;;;;;;;;;8.81;98.53;99871.06;4966237;28;19918;-89
2021/09/03 11:58:12;;;;;;;;;;;;;;;8.89;98.72;99883.09;4966010;28;20017;-89
2021/09/03 12:00:45;;;;;;;;;;;;;;;8.77;98.81;99872.94;4965160;28;19957;-88
2021/09/03 12:03:15;;;;;;;;;;;;;;;8.90;100.00;99865.44;4966021;28;20285;-90
2021/09/03 12:05:42;;;;;;;;;;;;;;;8.91;99.02;99865.41;4980612;28;20274;-90
2021/09/03 12:08:12;;;;;;;;;;;;;;;8.89;98.11;99864.59;4964865;28;20285;-88
2021/09/03 12:10:39;;;;;;;;;;;;;;;8.85;98.84;99862.09;4965996;28;19926;-90
2021/09/03 12:13:08;;;;;;;;;;;;;;;8.91;98.61;99865.41;4965009;28;20356;-89
2021/09/03 12:15:34;;;;;;;;;;;;;;;8.94;97.98;99863.59;4965989;28;19925;-88
2021/09/03 12:18:01;;;;;;;;;;;;;;;8.87;97.95;99865.56;4965689;28;19926;-89
2021/09/03 12:20:29;;;;;;;;;;;;;;;8.87;97.87;99858.50;4965642;28;20321;-88
2021/09/03 12:22:55;;;;;;;;;;;;;;;8.89;97.47;99856.66;4966133;28;19924;-90
2021/09/03 12:25:34;;;;;;;;;;;;;;;8.86;97.57;99851.50;4965849;28;19929;-89
2021/09/03 12:28:10;;;;;;;;;;;;;;;8.99;98.30;99851.06;4966351;28;20297;-87
2021/09/03 12:30:36;;;;;;;;;;;;;;;8.91;96.98;99852.19;4964135;28;19925;-90
2021/09/03 12:33:16;;;;;;;;;;;;;;;8.90;97.53;99857.53;4965146;28;20329;-89
2021/09/03 12:35:43;;;;;;;;;;;;;;;8.97;98.20;99852.91;4980950;28;19929;-89
2021/09/03 12:38:08;;;;;;;;;;;;;;;9.04;98.36;99849.13;4964663;28;19915;-89
2021/09/03 12:40:34;;;;;;;;;;;;;;;8.97;97.79;99851.13;4965053;28;19922;-88
2021/09/03 12:42:59;;;;;;;;;;;;;;;8.93;97.42;99843.34;4965534;28;20349;-89
2021/09/03 12:45:40;;;;;;;;;;;;;;;8.97;97.17;99847.63;4969783;28;19925;-89
2021/09/03 12:48:05;;;;;;;;;;;;;;;8.91;96.90;99840.75;4966876;28;19928;-90
2021/09/03 12:50:32;;;;;;;;;;;;;;;8.88;97.05;99832.94;4967778;28;20347;-90
2021/09/03 12:52:57;;;;;;;;;;;;;;;8.90;97.20;99841.66;4967450;28;20378;-90
2021/09/03 12:55:22;;;;;;;;;;;;;;;8.97;96.66;99837.06;4966994;28;19964;-89
2021/09/03 12:57:48;;;;;;;;;;;;;;;8.95;96.68;99834.47;4967296;28;19929;-91
2021/09/03 13:00:13;;;;;;;;;;;;;;;8.93;96.70;99835.41;4966649;28;20289;-90
2021/09/03 13:02:39;;;;;;;;;;;;;;;8.95;97.04;99833.59;4983496;28;20001;-90
2021/09/03 13:05:04;;;;;;;;;;;;;;;8.94;97.17;99829.22;4966846;28;19929;-91
2021/09/03 13:07:30;;;;;;;;;;;;;;;8.95;96.66;99818.59;4967399;28;20443;-87
2021/09/03 13:09:57;;;;;;;;;;;;;;;8.99;96.74;99819.34;4967314;28;19918;-88
2021/09/03 13:12:22;;;;;;;;;;;;;;;8.94;97.30;99810.72;4966601;28;19918;-90
2021/09/03 13:14:47;;;;;;;;;;;;;;;8.94;96.83;99816.03;4965476;28;20400;-88
2021/09/03 13:17:13;;;;;;;;;;;;;;;8.96;97.18;99808.88;4966952;28;19922;-89
2021/09/03 13:19:38;;;;;;;;;;;;;;;8.97;96.77;99810.63;4966688;28;19956;-91
2021/09/03 13:22:03;;;;;;;;;;;;;;;8.98;96.70;99805.25;4967262;28;19933;-89
2021/09/03 13:24:28;;;;;;;;;;;;;;;8.94;96.45;99800.16;4966755;28;19942;-87
2021/09/03 13:26:54;;;;;;;;;;;;;;;8.94;96.53;99794.88;4966905;28;19922;-90
2021/09/03 13:29:19;;;;;;;;;;;;;;;8.96;96.72;99795.69;4965161;28;19929;-89
2021/09/03 13:31:45;;;;;;;;;;;;;;;8.99;96.51;99792.91;4966323;28;19977;-89
2021/09/03 13:34:10;;;;;;;;;;;;;;;8.96;96.76;99782.47;4966819;28;20241;-88
2021/09/03 13:36:36;;;;;;;;;;;;;;;8.93;96.88;99783.44;4966562;28;20724;-88
2021/09/03 13:39:02;;;;;;;;;;;;;;;9.04;96.90;99777.75;4966149;28;19918;-89
2021/09/03 13:41:29;;;;;;;;;;;;;;;9.02;96.15;99777.81;4966083;28;19925;-89
2021/09/03 13:43:55;;;;;;;;;;;;;;;9.01;95.85;99781.34;4965386;28;19918;-89
2021/09/03 13:46:21;;;;;;;;;;;;;;;9.00;95.84;99778.78;4891986;28;2168964;-90
2021/09/03 13:48:47;;;;;;;;;;;;;;;8.99;96.63;99772.63;4967733;28;19925;-89
2021/09/03 13:51:12;;;;;;;;;;;;;;;9.03;95.61;99768.09;4967002;28;19965;-89
2021/09/03 13:53:38;;;;;;;;;;;;;;;8.99;95.84;99766.50;4984309;28;19925;-88
2021/09/03 13:56:03;;;;;;;;;;;;;;;9.02;95.42;99761.09;4985184;28;20009;-87
2021/09/03 13:58:29;;;;;;;;;;;;;;;9.00;95.85;99762.91;4966813;28;20292;-89
2021/09/03 14:00:55;;;;;;;;;;;;;;;9.02;95.26;99763.75;4965322;28;19918;-88
2021/09/03 14:03:20;;;;;;;;;;;;;;;8.97;95.98;99757.78;4966785;28;19929;-87
2021/09/03 14:05:45;;;;;;;;;;;;;;;9.03;95.99;99757.50;4966676;28;19953;-88
2021/09/03 14:08:11;;;;;;;;;;;;;;;9.04;95.92;99765.38;4966655;28;19929;-88
2021/09/03 14:10:36;;;;;;;;;;;;;;;8.99;95.63;99745.34;4966965;28;19980;-88
2021/09/03 14:13:02;;;;;;;;;;;;;;;9.02;95.57;99755.81;4966804;28;19922;-88
2021/09/03 14:15:28;;;;;;;;;;;;;;;9.02;95.12;99755.81;4965066;28;19929;-88
2021/09/03 14:17:53;;;;;;;;;;;;;;;9.05;95.36;99747.78;4966329;28;19922;-88
2021/09/03 14:20:22;;;;;;;;;;;;;;;9.00;95.68;99736.47;4966710;28;20125;-88
2021/09/03 14:22:50;;;;;;;;;;;;;;;9.06;95.54;99736.25;4966224;28;19925;-88
2021/09/03 14:25:18;;;;;;;;;;;;;;;9.03;95.71;99739.00;4966445;28;19918;-87
2021/09/03 14:27:44;;;;;;;;;;;;;;;9.07;96.02;99730.06;4966343;28;19918;-88
2021/09/03 14:30:09;;;;;;;;;;;;;;;9.10;96.14;99724.66;4964627;28;20407;-88
2021/09/03 14:32:34;;;;;;;;;;;;;;;9.07;96.60;99720.34;4965560;28;19962;-88
2021/09/03 14:35:00;;;;;;;;;;;;;;;9.07;96.84;99716.84;4966584;28;19918;-88
2021/09/03 14:37:25;;;;;;;;;;;;;;;9.12;96.52;99719.31;4983607;28;19965;-90
2021/09/03 14:39:50;;;;;;;;;;;;;;;9.09;96.62;99715.88;4965993;28;19929;-90
2021/09/03 14:42:15;;;;;;;;;;;;;;;9.09;96.36;99707.06;4966561;28;20215;-88
2021/09/03 14:44:41;;;;;;;;;;;;;;;9.11;95.97;99710.53;4965503;28;19922;-87
2021/09/03 14:47:06;;;;;;;;;;;;;;;9.06;95.85;99702.78;4965574;28;20001;-88
2021/09/03 14:49:31;;;;;;;;;;;;;;;9.10;95.85;99700.88;4965869;28;20274;-90
2021/09/03 14:51:57;;;;;;;;;;;;;;;9.11;96.50;99696.44;4965217;28;19957;-90
2021/09/03 14:54:22;;;;;;;;;;;;;;;9.11;96.04;99696.44;4966721;28;19928;-89
2021/09/03 14:56:47;;;;;;;;;;;;;;;9.11;95.83;99692.03;4983513;28;19917;-89
2021/09/03 14:59:13;;;;;;;;;;;;;;;9.16;95.88;99695.34;4964630;28;19918;-88
2021/09/03 15:01:38;;;;;;;;;;;;;;;9.12;95.73;99692.88;4966706;28;20371;-88
2021/09/03 15:04:04;;;;;;;;;;;;;;;9.20;95.44;99693.44;4965768;28;20469;-89
2021/09/03 15:06:29;;;;;;;;;;;;;;;9.09;95.43;99694.75;4966348;28;19976;-89
2021/09/03 15:08:54;;;;;;;;;;;;;;;9.16;95.58;99690.06;4965968;28;20283;-88
2021/09/03 15:11:20;;;;;;;;;;;;;;;9.17;95.89;99691.78;4983709;28;19918;-90
2021/09/03 15:13:45;;;;;;;;;;;;;;;9.20;95.38;99691.66;4965479;28;19921;-90
2021/09/03 15:16:10;;;;;;;;;;;;;;;9.16;95.67;99675.97;4965849;28;19918;-89
2021/09/03 15:18:36;;;;;;;;;;;;;;;9.19;95.28;99683.78;4965530;28;19918;-88
2021/09/03 15:21:01;;;;;;;;;;;;;;;9.33;96.58;99680.63;4966084;28;19923;-89
2021/09/03 15:23:26;;;;;;;;;;;;;;;9.22;95.53;99678.38;4982964;28;20429;-89
2021/09/03 15:25:52;;;;;;;;;;;;;;;9.23;95.25;99675.69;4982762;28;19918;-89
2021/09/03 15:28:18;;;;;;;;;;;;;;;9.23;96.09;99675.69;4965561;28;19925;-89
2021/09/03 15:30:43;;;;;;;;;;;;;;;9.18;96.09;99680.28;4964250;28;20012;-89
2021/09/03 15:33:09;;;;;;;;;;;;;;;9.22;95.90;99673.09;4982932;28;19917;-86
2021/09/03 15:35:35;;;;;;;;;;;;;;;9.15;96.17;99664.53;4965115;28;19921;-88
2021/09/03 15:38:12;;;;;;;;;;;;;;;9.20;96.17;99664.38;4965310;28;19997;-88
2021/09/03 15:40:38;;;;;;;;;;;;;;;9.21;96.08;99666.09;4965028;28;19922;-89
2021/09/03 15:43:04;;;;;;;;;;;;;;;9.15;95.77;99655.75;4965806;28;19925;-88
2021/09/03 15:45:29;;;;;;;;;;;;;;;9.14;95.78;99660.16;4964095;28;19926;-88
2021/09/03 15:47:54;;;;;;;;;;;;;;;9.18;95.56;99659.16;4965565;28;19926;-88
2021/09/03 15:50:20;;;;;;;;;;;;;;;9.21;96.40;99661.66;4982577;28;19918;-89
2021/09/03 15:52:45;;;;;;;;;;;;;;;9.21;95.82;99655.53;4964828;28;19922;-87
2021/09/03 15:55:10;;;;;;;;;;;;;;;9.26;96.46;99654.41;4965314;28;19918;-89
2021/09/03 15:57:36;;;;;;;;;;;;;;;9.20;96.59;99656.44;4965455;28;19963;-88
2021/09/03 16:00:01;;;;;;;;;;;;;;;9.18;97.13;99648.56;4963993;28;19922;-86
2021/09/03 16:02:26;;;;;;;;;;;;;;;9.21;96.91;99651.09;4965642;28;19922;-87
2021/09/03 16:04:52;;;;;;;;;;;;;;;9.29;96.60;99653.44;4964614;28;20301;-88
2021/09/03 16:07:18;;;;;;;;;;;;;;;9.60;97.16;99647.75;4965528;28;19945;-85
2021/09/03 16:09:43;;;;;;;;;;;;;;;9.71;98.06;99643.81;4982753;28;20273;-85
2021/09/03 16:12:08;;;;;;;;;;;;;;;15.08;87.45;99629.97;4964757;28;20285;-86
2021/09/03 16:14:34;;;;;;;;;;;;;;;15.46;91.00;99631.09;4963972;28;19964;-86
2021/09/03 16:16:59;;;;;;;;;;;;;;;15.70;93.37;99626.81;4965147;28;20082;-89
2021/09/03 16:19:25;;;;;;;;;;;;;;;16.63;89.27;99628.53;4982363;28;19962;-87
2021/09/03 16:21:50;;;;;;;;;;;;;;;16.92;86.82;99631.00;4964769;28;19976;-88
2021/09/03 16:24:16;;;;;;;;;;;;;;;16.51;90.24;99624.91;4979954;28;19914;-87
2021/09/03 16:26:41;;;;;;;;;;;;;;;17.17;85.96;99620.22;4964091;28;20361;-88
2021/09/03 16:29:08;;;;;;;;;;;;;;;17.04;86.66;99617.59;4964360;28;20224;-87
2021/09/03 16:31:34;;;;;;;;;;;;;;;15.29;98.09;99625.03;4964515;28;20269;-85
2021/09/03 16:34:00;;;;;;;;;;;;;;;13.73;100.00;99623.06;4963948;28;20330;-85
2021/09/03 16:36:27;;;;;;;;;;;;;;;13.18;100.00;99624.38;4965330;28;20004;-84
2021/09/03 16:38:53;;;;;;;;;;;;;;;12.68;100.00;99627.09;4983311;28;20296;-83
2021/09/03 16:41:19;;;;;;;;;;;;;;;12.39;100.00;99625.97;4986149;28;19922;-84
2021/09/03 16:43:45;;;;;;;;;;;;;;;12.21;100.00;99616.34;4985631;28;19918;-85
2021/09/03 16:46:10;;;;;;;;;;;;;;;12.06;100.00;99621.50;4984059;28;19932;-84
2021/09/03 16:48:35;;;;;;;;;;;;;;;11.96;100.00;99628.22;4985728;28;19918;-82
2021/09/03 16:51:01;;;;;;;;;;;;;;;11.92;100.00;99621.38;4985602;28;19918;-84
2021/09/03 16:53:26;;;;;;;;;;;;;;;11.81;100.00;99629.84;4985359;28;19922;-83
2021/09/03 16:55:52;;;;;;;;;;;;;;;11.71;100.00;99629.44;4985490;28;20381;-83
2021/09/03 16:58:17;;;;;;;;;;;;;;;11.57;100.00;99626.63;4985537;28;20145;-83
2021/09/03 17:00:43;;;;;;;;;;;;;;;11.52;100.00;99623.31;4984531;28;19972;-84
2021/09/03 17:03:09;;;;;;;;;;;;;;;11.42;100.00;99629.09;4967517;28;19922;-83
2021/09/03 17:05:36;;;;;;;;;;;;;;;11.29;100.00;99627.94;4985292;28;19918;-84
2021/09/03 17:08:01;;;;;;;;;;;;;;;11.54;100.00;99626.75;4985266;28;19925;-87
2021/09/03 17:10:27;;;;;;;;;;;;;;;11.48;100.00;99624.41;4985243;28;20008;-85
2021/09/03 17:12:52;;;;;;;;;;;;;;;11.11;100.00;99626.19;4967504;28;19922;-85
2021/09/03 17:15:23;;;;;;;;;;;;;;;10.93;100.00;99626.13;4966359;28;20324;-85
2021/09/03 17:17:48;;;;;;;;;;;;;;;10.84;100.00;99626.56;4967508;28;19918;-85
2021/09/03 17:20:13;;;;;;;;;;;;;;;10.79;100.00;99628.56;4985030;28;19925;-85
2021/09/03 17:22:40;;;;;;;;;;;;;;;10.61;100.00;99625.81;4984549;28;19925;-84
2021/09/03 17:25:06;;;;;;;;;;;;;;;10.43;100.00;99630.16;4966793;28;20056;-84
2021/09/03 17:27:32;;;;;;;;;;;;;;;10.56;100.00;99638.41;4984785;28;19925;-85
2021/09/03 17:29:59;;;;;;;;;;;;;;;10.61;100.00;99632.91;4983025;28;19918;-84
2021/09/03 17:32:24;;;;;;;;;;;;;;;10.34;100.00;99628.78;4985059;28;19917;-83
2021/09/03 17:34:50;;;;;;;;;;;;;;;10.32;100.00;99635.03;4984631;28;20377;-84
2021/09/03 17:37:15;;;;;;;;;;;;;;;10.30;100.00;99628.94;4967028;28;19921;-84
2021/09/03 17:39:40;;;;;;;;;;;;;;;10.38;100.00;99624.19;4966962;28;19921;-85
2021/09/03 17:42:05;;;;;;;;;;;;;;;10.35;100.00;99625.22;4984320;28;19997;-84
2021/09/03 17:44:32;;;;;;;;;;;;;;;10.39;100.00;99625.03;4966365;28;20020;-84
2021/09/03 17:46:57;;;;;;;;;;;;;;;10.40;100.00;99624.97;4966897;28;19925;-84
2021/09/03 17:49:22;;;;;;;;;;;;;;;10.42;100.00;99630.22;4984419;28;19918;-84
2021/09/03 17:51:48;;;;;;;;;;;;;;;10.45;100.00;99623.00;4966823;28;19921;-85
2021/09/03 17:54:13;;;;;;;;;;;;;;;10.45;100.00;99627.44;4984067;28;19926;-84
2021/09/03 17:56:38;;;;;;;;;;;;;;;10.46;100.00;99626.50;4984340;28;19918;-84
2021/09/03 17:59:04;;;;;;;;;;;;;;;10.45;100.00;99630.06;4983276;28;19946;-84
2021/09/03 18:01:30;;;;;;;;;;;;;;;10.49;100.00;99629.03;4984175;28;20018;-83
2021/09/03 18:03:59;;;;;;;;;;;;;;;10.45;100.00;99630.97;4983958;28;19969;-84
2021/09/03 18:06:25;;;;;;;;;;;;;;;10.46;100.00;99640.59;4983523;28;19949;-84
2021/09/03 18:08:50;;;;;;;;;;;;;;;10.46;100.00;99637.09;4984055;28;20033;-84
2021/09/03 18:11:15;;;;;;;;;;;;;;;10.45;100.00;99636.25;4966335;28;20733;-84
2021/09/03 18:13:40;;;;;;;;;;;;;;;10.49;100.00;99643.13;4984086;28;19917;-84
2021/09/03 18:16:06;;;;;;;;;;;;;;;10.47;100.00;99636.19;4965677;28;19978;-84
2021/09/03 18:18:31;;;;;;;;;;;;;;;10.48;100.00;99640.53;4984005;28;19914;-83
2021/09/03 18:20:57;;;;;;;;;;;;;;;10.47;100.00;99637.03;4983662;28;19929;-84
2021/09/03 18:23:23;;;;;;;;;;;;;;;10.47;100.00;99639.69;4983816;28;20400;-84
2021/09/03 18:25:48;;;;;;;;;;;;;;;10.46;100.00;99637.09;4983944;28;19976;-84
2021/09/03 18:28:15;;;;;;;;;;;;;;;10.50;100.00;99641.34;4983027;28;19919;-84
2021/09/03 18:30:41;;;;;;;;;;;;;;;10.91;100.00;99649.19;4982071;28;19921;-82
2021/09/03 18:33:06;;;;;;;;;;;;;;;9.67;100.00;99652.78;4966859;28;20434;-84
2021/09/03 18:35:32;;;;;;;;;;;;;;;9.01;100.00;99658.94;4966098;28;20004;-84
2021/09/03 18:37:57;;;;;;;;;;;;;;;8.79;100.00;99659.78;4965919;28;19929;-84
2021/09/03 18:40:22;;;;;;;;;;;;;;;8.67;100.00;99663.72;4983476;28;19924;-84
2021/09/03 18:42:48;;;;;;;;;;;;;;;8.57;100.00;99669.38;4983957;28;19918;-85
2021/09/03 18:45:13;;;;;;;;;;;;;;;8.47;100.00;99671.50;4982084;28;19976;-85
2021/09/03 18:47:38;;;;;;;;;;;;;;;8.43;100.00;99669.88;4965831;28;20432;-84
2021/09/03 18:50:04;;;;;;;;;;;;;;;8.34;100.00;99678.97;4983348;28;19953;-84
2021/09/03 18:52:29;;;;;;;;;;;;;;;8.31;100.00;99684.34;4965936;28;19925;-83
2021/09/03 18:54:55;;;;;;;;;;;;;;;8.36;100.00;99683.28;4983431;28;19918;-84
2021/09/03 18:57:20;;;;;;;;;;;;;;;8.24;100.00;99683.69;4982988;28;19922;-84
2021/09/03 18:59:45;;;;;;;;;;;;;;;8.19;100.00;99690.94;4982062;28;19918;-84
2021/09/03 19:02:10;;;;;;;;;;;;;;;8.16;100.00;99689.25;4982463;28;19925;-84
2021/09/03 19:04:36;;;;;;;;;;;;;;;8.06;100.00;99694.88;4983132;28;19969;-84
2021/09/03 19:07:01;;;;;;;;;;;;;;;8.01;100.00;99692.44;4965989;28;19925;-84